Urb Ocean View, Puerto Rico
Current Conditions -  °F | °C
As of 5:50 PM on Saturday 20 Dec 2014 (Local Time) from TJBQ Reporting Station
Scattered Clouds Scattered Clouds  
Wind Chill: 79°   Ceiling: Unl
Heat Index: 81°   Visibility: 10mi
Dew Point: 70°   Wind: 10mph
Humidity: 74%   Direction: 100°E
Pressure: 30"   Gusts: 18mph
Location:  18.4739°N, 66.7295°W
Report Text: TJBQ 202150Z 10009G16KT 10SM SCT080 26/21 A3000 RMK RWY08 ATIS R
Loading
Personal Weather Stations






























Interactive Weather Map New forecast layout! Learn more

10-Day Weather Forecast

Advertisements
Track Severe Weather on mobile